createdAt,value
2022-08-11T00:00:37.270Z,1.90
2022-08-11T00:01:37.041Z,1.70
2022-08-11T00:02:37.452Z,1.80
2022-08-11T00:03:43.490Z,1.80
2022-08-11T00:04:37.992Z,1.70
2022-08-11T00:05:37.217Z,1.70
2022-08-11T00:06:36.976Z,1.90
2022-08-11T00:07:37.178Z,1.70
2022-08-11T00:08:36.951Z,1.70
2022-08-11T00:09:39.499Z,1.90
2022-08-11T00:10:36.949Z,1.50
2022-08-11T00:11:36.916Z,1.70
2022-08-11T00:12:37.045Z,1.80
2022-08-11T00:13:37.219Z,1.60
2022-08-11T00:14:37.958Z,1.80
2022-08-11T00:15:36.880Z,1.90
2022-08-11T00:16:36.872Z,1.70
2022-08-11T00:17:36.879Z,2.00
2022-08-11T00:18:36.849Z,1.70
2022-08-11T00:20:13.086Z,1.70
2022-08-11T00:20:37.822Z,1.70
2022-08-11T00:22:04.249Z,1.90
2022-08-11T00:22:37.946Z,1.70
2022-08-11T00:23:36.780Z,1.90
2022-08-11T00:24:49.367Z,1.90
2022-08-11T00:25:37.783Z,1.90
2022-08-11T00:26:36.741Z,1.70
2022-08-11T00:27:36.749Z,1.80
2022-08-11T00:28:36.965Z,1.70
2022-08-11T00:29:36.714Z,1.60
2022-08-11T00:30:37.705Z,1.70
2022-08-11T00:31:36.695Z,1.90
2022-08-11T00:32:37.116Z,1.80
2022-08-11T00:33:44.482Z,1.70
2022-08-11T00:34:37.644Z,1.80
2022-08-11T00:35:56.228Z,1.90
2022-08-11T00:36:37.652Z,1.90
2022-08-11T00:37:36.625Z,1.70
2022-08-11T00:38:36.609Z,2.10
2022-08-11T00:39:36.900Z,1.90
2022-08-11T00:40:36.583Z,2.00
2022-08-11T00:41:36.586Z,1.70
2022-08-11T00:42:36.708Z,1.80
2022-08-11T00:43:36.799Z,2.00
2022-08-11T00:44:36.518Z,1.90
2022-08-11T00:45:36.517Z,2.00
2022-08-11T00:46:36.508Z,1.70
2022-08-11T00:47:36.518Z,1.90
2022-08-11T00:48:36.810Z,1.60
2022-08-11T00:49:36.466Z,1.80
2022-08-11T00:50:36.459Z,1.80
2022-08-11T00:52:04.184Z,1.60
2022-08-11T00:52:37.551Z,1.70
2022-08-11T00:53:36.699Z,1.60
2022-08-11T00:54:36.400Z,1.80
2022-08-11T00:55:36.419Z,1.90
2022-08-11T00:56:36.630Z,1.70
2022-08-11T00:57:38.403Z,1.60
2022-08-11T00:58:36.351Z,1.60
2022-08-11T00:59:36.364Z,1.90
2022-08-11T01:00:36.392Z,1.60
2022-08-11T01:01:36.335Z,1.80
2022-08-11T01:02:36.565Z,1.90
2022-08-11T01:03:36.314Z,1.80
2022-08-11T01:04:36.283Z,2.00
2022-08-11T01:05:36.311Z,1.80
2022-08-11T01:06:36.278Z,2.10
2022-08-11T01:08:01.905Z,1.90
2022-08-11T01:08:37.258Z,1.70
2022-08-11T01:09:36.473Z,2.00
2022-08-11T01:10:36.229Z,2.00
2022-08-11T01:11:36.222Z,2.00
2022-08-11T01:12:42.857Z,1.90
2022-08-11T01:13:36.470Z,1.90
2022-08-11T01:14:36.499Z,2.00
2022-08-11T01:15:36.174Z,2.00
2022-08-11T01:16:36.151Z,1.90
2022-08-11T01:17:36.441Z,2.20
2022-08-11T01:18:36.131Z,2.30
2022-08-11T01:20:46.809Z,2.10
2022-08-11T01:20:47.587Z,2.30
2022-08-11T01:21:37.103Z,2.00
2022-08-11T01:22:36.200Z,2.30
2022-08-11T01:23:36.353Z,2.00
2022-08-11T01:24:36.049Z,2.30
2022-08-11T01:25:56.903Z,2.50
2022-08-11T01:26:37.042Z,2.40
2022-08-11T01:27:36.034Z,2.20
2022-08-11T01:28:35.992Z,2.20
2022-08-11T01:29:36.207Z,2.00
2022-08-11T01:30:35.989Z,2.20
2022-08-11T01:31:35.978Z,2.00
2022-08-11T01:32:36.125Z,2.10
2022-08-11T01:33:35.946Z,2.10
2022-08-11T01:34:35.947Z,2.40
2022-08-11T01:35:37.299Z,2.20
2022-08-11T01:36:35.915Z,2.20
2022-08-11T01:37:43.018Z,2.30
2022-08-11T01:38:35.884Z,2.30
2022-08-11T01:39:35.920Z,2.50
2022-08-11T01:40:38.516Z,2.30
2022-08-11T01:41:38.747Z,2.20
2022-08-11T01:42:35.856Z,2.10
2022-08-11T01:43:38.506Z,2.40
2022-08-11T01:44:35.829Z,2.30
2022-08-11T01:45:35.821Z,2.30
2022-08-11T01:46:36.090Z,2.30
2022-08-11T01:47:35.793Z,2.40
2022-08-11T01:48:35.779Z,2.50
2022-08-11T01:50:09.726Z,2.20
2022-08-11T01:50:39.391Z,2.30
2022-08-11T01:51:36.066Z,2.20
2022-08-11T01:52:38.393Z,2.40
2022-08-11T01:53:35.733Z,2.60
2022-08-11T01:54:35.704Z,2.30
2022-08-11T01:55:35.705Z,2.40
2022-08-11T01:56:38.315Z,2.10
2022-08-11T01:57:38.545Z,2.30
2022-08-11T01:58:43.489Z,2.20
2022-08-11T01:59:36.655Z,2.30
2022-08-11T02:00:35.679Z,2.40
2022-08-11T02:01:35.622Z,2.40
2022-08-11T02:02:35.975Z,2.40
2022-08-11T02:03:38.252Z,2.40
2022-08-11T02:04:38.246Z,2.40
2022-08-11T02:05:38.252Z,2.40
2022-08-11T02:06:35.564Z,2.30
2022-08-11T02:07:35.568Z,2.30
2022-08-11T02:08:35.794Z,2.20
2022-08-11T02:09:35.535Z,2.70
2022-08-11T02:10:36.600Z,2.60
2022-08-11T02:11:37.298Z,2.40
2022-08-11T02:12:35.488Z,2.40
2022-08-11T02:13:36.974Z,3.60
2022-08-11T02:14:37.148Z,2.90
2022-08-11T02:15:35.472Z,2.60
2022-08-11T02:16:35.779Z,2.50
2022-08-11T02:17:35.444Z,2.50
2022-08-11T02:18:38.104Z,2.50
2022-08-11T02:19:38.103Z,2.40
2022-08-11T02:20:37.053Z,2.40
2022-08-11T02:21:35.673Z,2.30
2022-08-11T02:22:35.375Z,2.30
2022-08-11T02:24:04.030Z,2.60
2022-08-11T02:24:36.351Z,2.70
2022-08-11T02:25:37.027Z,2.30
2022-08-11T02:26:38.013Z,2.30
2022-08-11T02:27:35.542Z,2.30
2022-08-11T02:28:38.888Z,2.30
2022-08-11T02:29:39.033Z,2.30
2022-08-11T02:30:35.277Z,2.40
2022-08-11T02:32:15.401Z,2.40
2022-08-11T02:32:39.263Z,2.20
2022-08-11T02:33:36.596Z,2.30
2022-08-11T02:34:35.249Z,2.40
2022-08-11T02:35:37.864Z,2.40
2022-08-11T02:36:35.228Z,2.50
2022-08-11T02:37:37.940Z,2.40
2022-08-11T02:38:35.681Z,2.30
2022-08-11T02:39:35.436Z,2.30
2022-08-11T02:40:35.182Z,2.50
2022-08-11T02:41:37.837Z,2.70
2022-08-11T02:42:35.939Z,2.60
2022-08-11T02:43:35.434Z,2.50
2022-08-11T02:44:35.142Z,2.60
2022-08-11T02:45:35.107Z,2.50
2022-08-11T02:46:35.098Z,2.60
2022-08-11T02:47:37.761Z,2.80
2022-08-11T02:48:35.092Z,2.50
2022-08-11T02:49:35.359Z,2.70
2022-08-11T02:50:35.050Z,2.60
2022-08-11T02:51:35.037Z,2.30
2022-08-11T02:52:35.054Z,2.30
2022-08-11T02:53:35.010Z,2.60
2022-08-11T02:54:35.001Z,2.70
2022-08-11T02:55:50.978Z,2.70
2022-08-11T02:56:36.005Z,2.30
2022-08-11T02:57:34.985Z,2.50
2022-08-11T02:58:34.979Z,2.40
2022-08-11T02:59:34.951Z,2.30
2022-08-11T03:00:34.934Z,2.30
2022-08-11T03:01:37.902Z,2.10
2022-08-11T03:02:34.926Z,2.60
2022-08-11T03:03:34.893Z,2.20
2022-08-11T03:04:37.402Z,2.50
2022-08-11T03:05:34.879Z,2.40
2022-08-11T03:06:34.867Z,2.50
2022-08-11T03:07:35.195Z,2.40
2022-08-11T03:08:34.852Z,2.50
2022-08-11T03:09:34.847Z,2.70
2022-08-11T03:10:34.816Z,2.30
2022-08-11T03:11:36.801Z,2.60
2022-08-11T03:12:34.797Z,2.60
2022-08-11T03:13:34.791Z,2.40
2022-08-11T03:14:34.783Z,2.30
2022-08-11T03:15:34.764Z,2.50
2022-08-11T03:16:34.762Z,2.70
2022-08-11T03:17:35.053Z,2.40
2022-08-11T03:18:35.453Z,2.30
2022-08-11T03:19:34.723Z,2.70
2022-08-11T03:20:38.247Z,2.60
2022-08-11T03:22:01.129Z,2.50
2022-08-11T03:22:36.164Z,2.50
2022-08-11T03:23:37.323Z,2.20
2022-08-11T03:24:37.317Z,2.20
2022-08-11T03:25:34.654Z,2.50
2022-08-11T03:26:34.645Z,2.50
2022-08-11T03:27:37.242Z,2.50
2022-08-11T03:28:34.926Z,2.50
2022-08-11T03:29:37.266Z,2.60
2022-08-11T03:30:34.909Z,2.10
2022-08-11T03:31:34.563Z,2.30
2022-08-11T03:32:37.363Z,2.40
2022-08-11T03:33:34.558Z,2.40
2022-08-11T03:34:34.558Z,2.40
2022-08-11T03:35:34.535Z,2.60
2022-08-11T03:36:36.871Z,2.60
2022-08-11T03:37:35.497Z,2.50
2022-08-11T03:38:34.486Z,2.50
2022-08-11T03:39:34.561Z,2.40
2022-08-11T03:40:34.480Z,2.30
2022-08-11T03:42:02.854Z,2.50
2022-08-11T03:42:35.723Z,2.50
2022-08-11T03:43:34.786Z,2.40
2022-08-11T03:44:34.439Z,2.30
2022-08-11T03:45:38.842Z,2.50
2022-08-11T03:46:35.411Z,2.50
2022-08-11T03:47:34.403Z,2.40
2022-08-11T03:48:34.613Z,2.30
2022-08-11T03:49:34.366Z,2.30
2022-08-11T03:50:34.352Z,2.60
2022-08-11T03:51:51.663Z,2.60
2022-08-11T03:52:35.633Z,2.50
2022-08-11T03:53:34.331Z,2.60
2022-08-11T03:54:34.314Z,2.70
2022-08-11T03:55:34.304Z,2.50
2022-08-11T03:56:34.310Z,2.60
2022-08-11T03:57:35.892Z,2.40
2022-08-11T03:58:41.741Z,2.50
2022-08-11T03:59:34.513Z,2.60
2022-08-11T04:00:34.246Z,2.60
2022-08-11T04:01:34.283Z,2.40
2022-08-11T04:02:34.218Z,2.50
2022-08-11T04:03:34.401Z,2.50
2022-08-11T04:04:36.896Z,2.50
2022-08-11T04:05:34.181Z,2.40
2022-08-11T04:06:34.155Z,2.50
2022-08-11T04:07:34.154Z,2.40
2022-08-11T04:08:34.602Z,2.60
2022-08-11T04:09:34.390Z,2.50
2022-08-11T04:10:34.128Z,2.50
2022-08-11T04:11:34.096Z,2.80
2022-08-11T04:12:35.808Z,2.60
2022-08-11T04:13:36.735Z,2.50
2022-08-11T04:14:34.410Z,2.80
2022-08-11T04:15:34.069Z,2.80
2022-08-11T04:16:34.042Z,2.90
2022-08-11T04:17:34.020Z,2.50
2022-08-11T04:18:34.022Z,2.60
2022-08-11T04:19:34.303Z,2.60
2022-08-11T04:20:34.005Z,2.60
2022-08-11T04:21:33.990Z,2.70
2022-08-11T04:22:33.971Z,2.80
2022-08-11T04:24:35.555Z,2.60
2022-08-11T04:24:39.612Z,2.40
2022-08-11T04:25:33.934Z,2.80
2022-08-11T04:26:34.932Z,2.80
2022-08-11T04:27:37.462Z,2.80
2022-08-11T04:28:33.892Z,2.80
2022-08-11T04:30:05.047Z,2.80
2022-08-11T04:30:40.604Z,2.60
2022-08-11T04:31:51.156Z,2.70
2022-08-11T04:32:35.133Z,2.70
2022-08-11T04:33:34.378Z,2.90
2022-08-11T04:34:33.839Z,2.70
2022-08-11T04:35:33.826Z,2.90
2022-08-11T04:36:33.821Z,2.80
2022-08-11T04:37:33.786Z,2.70
2022-08-11T04:38:34.044Z,2.70
2022-08-11T04:39:36.480Z,2.70
2022-08-11T04:40:33.771Z,2.90
2022-08-11T04:41:33.750Z,2.70
2022-08-11T04:42:33.822Z,2.50
2022-08-11T04:43:33.730Z,2.70
2022-08-11T04:44:33.951Z,2.50
2022-08-11T04:45:33.689Z,2.80
2022-08-11T04:46:33.708Z,2.80
2022-08-11T04:47:33.669Z,2.80
2022-08-11T04:48:34.675Z,2.80
2022-08-11T04:49:34.161Z,2.90
2022-08-11T04:50:33.657Z,2.90
2022-08-11T04:51:33.620Z,2.80
2022-08-11T04:52:37.979Z,2.80
2022-08-11T04:53:33.900Z,2.80
2022-08-11T04:54:33.591Z,3.30
2022-08-11T04:55:33.596Z,3.20
2022-08-11T04:56:33.587Z,2.80
2022-08-11T04:57:33.566Z,3.00
2022-08-11T04:58:33.542Z,3.10
2022-08-11T04:59:33.784Z,3.00
2022-08-11T05:00:33.515Z,2.90
2022-08-11T05:01:37.189Z,2.80
2022-08-11T05:02:33.557Z,2.70
2022-08-11T05:03:33.488Z,3.10
2022-08-11T05:04:33.510Z,3.00
2022-08-11T05:05:33.485Z,2.90
2022-08-11T05:06:33.446Z,3.10
2022-08-11T05:07:33.449Z,2.90
2022-08-11T05:08:33.431Z,2.90
2022-08-11T05:09:33.428Z,2.90
2022-08-11T05:10:33.438Z,3.50
2022-08-11T05:11:34.400Z,3.00
2022-08-11T05:12:33.451Z,3.00
2022-08-11T05:13:33.382Z,3.00
2022-08-11T05:14:33.369Z,3.10
2022-08-11T05:15:42.549Z,3.00
2022-08-11T05:16:37.334Z,3.10
2022-08-11T05:17:33.339Z,3.10
2022-08-11T05:18:36.254Z,3.20
2022-08-11T05:19:36.010Z,3.00
2022-08-11T05:20:33.287Z,3.20
2022-08-11T05:21:34.477Z,3.10
2022-08-11T05:22:34.269Z,3.40
2022-08-11T05:23:33.261Z,3.20
2022-08-11T05:24:33.452Z,3.20
2022-08-11T05:26:43.644Z,3.20
2022-08-11T05:26:47.640Z,3.00
2022-08-11T05:27:34.191Z,3.20
2022-08-11T05:28:33.218Z,3.30
2022-08-11T05:29:33.522Z,3.30
2022-08-11T05:30:34.602Z,2.90
2022-08-11T05:31:33.151Z,3.60
2022-08-11T05:32:33.198Z,3.40
2022-08-11T05:33:33.144Z,3.80
2022-08-11T05:34:33.124Z,3.80
2022-08-11T05:36:01.424Z,3.90
2022-08-11T05:36:34.103Z,3.40
2022-08-11T05:37:33.190Z,3.40
2022-08-11T05:38:33.074Z,3.50
2022-08-11T05:39:36.220Z,3.30
2022-08-11T05:40:33.106Z,3.50
2022-08-11T05:41:33.040Z,3.40
2022-08-11T05:42:33.040Z,3.30
2022-08-11T05:43:33.007Z,3.20
2022-08-11T05:44:33.238Z,3.30
2022-08-11T05:46:02.296Z,3.30
2022-08-11T05:46:33.978Z,3.20
2022-08-11T05:47:32.958Z,3.40
2022-08-11T05:48:32.971Z,3.40
2022-08-11T05:49:33.123Z,3.30
2022-08-11T05:50:33.395Z,3.50
2022-08-11T05:51:32.920Z,3.20
2022-08-11T05:52:32.910Z,3.30
2022-08-11T05:53:45.794Z,3.00
2022-08-11T05:54:33.881Z,3.20
2022-08-11T05:55:32.883Z,3.30
2022-08-11T05:56:38.303Z,3.50
2022-08-11T05:57:45.464Z,3.30
2022-08-11T05:58:36.963Z,3.10
2022-08-11T05:59:33.821Z,3.60
2022-08-11T06:01:46.800Z,3.10
2022-08-11T06:02:44.135Z,3.10
2022-08-11T06:03:43.769Z,3.20
2022-08-11T06:04:44.771Z,3.70
2022-08-11T06:05:44.383Z,3.20
2022-08-11T06:06:46.898Z,3.60
2022-08-11T06:07:49.123Z,3.40
2022-08-11T06:08:47.430Z,3.60
2022-08-11T06:09:44.032Z,3.40
2022-08-11T06:10:43.730Z,3.30
2022-08-11T06:12:54.680Z,2.90
2022-08-11T06:13:54.660Z,2.90
2022-08-11T06:14:54.685Z,3.20
2022-08-11T06:15:54.764Z,3.70
2022-08-11T06:16:54.624Z,3.30
2022-08-11T06:17:54.761Z,3.60
2022-08-11T06:18:54.605Z,3.70
2022-08-11T06:19:54.591Z,3.40
2022-08-11T06:20:55.636Z,3.50
2022-08-11T06:21:54.833Z,3.20
2022-08-11T06:22:54.554Z,3.30
2022-08-11T06:23:54.554Z,3.10
2022-08-11T06:24:54.532Z,3.40
2022-08-11T06:25:56.208Z,3.10
2022-08-11T06:27:11.691Z,3.20
2022-08-11T06:27:55.507Z,3.20
2022-08-11T06:28:54.488Z,2.90
2022-08-11T06:29:55.708Z,2.90
2022-08-11T06:30:54.476Z,3.10
2022-08-11T06:31:54.800Z,3.00
2022-08-11T06:32:54.436Z,3.10
2022-08-11T06:33:54.417Z,3.00
2022-08-11T06:34:54.430Z,3.10
2022-08-11T06:35:54.398Z,3.00
2022-08-11T06:36:54.389Z,3.00
2022-08-11T06:37:58.632Z,3.20
2022-08-11T06:38:54.368Z,3.00
2022-08-11T06:39:54.419Z,3.10
2022-08-11T06:40:54.349Z,3.20
2022-08-11T06:41:54.336Z,3.10
2022-08-11T06:42:54.333Z,3.30
2022-08-11T06:43:56.088Z,3.20
2022-08-11T06:44:54.806Z,3.50
2022-08-11T06:45:54.794Z,3.20
2022-08-11T06:46:54.705Z,3.20
2022-08-11T06:47:54.300Z,3.20
2022-08-11T06:48:55.038Z,3.10
2022-08-11T06:49:55.197Z,3.50
2022-08-11T06:50:54.258Z,3.30
2022-08-11T06:51:54.227Z,3.10
2022-08-11T06:52:55.433Z,3.30
2022-08-11T06:54:03.196Z,3.10
2022-08-11T06:54:55.197Z,3.20
2022-08-11T06:55:56.697Z,2.90
2022-08-11T06:57:06.707Z,3.10
2022-08-11T06:57:55.162Z,3.00
2022-08-11T06:58:54.166Z,3.20
2022-08-11T06:59:54.116Z,3.10
2022-08-11T07:00:54.127Z,3.40
2022-08-11T07:01:54.124Z,3.80
2022-08-11T07:02:54.132Z,3.40
2022-08-11T07:03:54.082Z,3.40
2022-08-11T07:04:54.066Z,2.80
2022-08-11T07:05:54.048Z,3.00
2022-08-11T07:06:54.039Z,2.70
2022-08-11T07:07:54.019Z,3.10
2022-08-11T07:08:54.314Z,3.30
2022-08-11T07:09:54.017Z,3.30
2022-08-11T07:10:53.992Z,3.00
2022-08-11T07:11:53.989Z,2.90
2022-08-11T07:12:53.986Z,2.90
2022-08-11T07:13:53.981Z,3.10
2022-08-11T07:14:54.122Z,3.10
2022-08-11T07:16:12.167Z,3.00
2022-08-11T07:16:55.136Z,3.00
2022-08-11T07:17:53.926Z,2.90
2022-08-11T07:18:53.895Z,3.20
2022-08-11T07:19:54.218Z,2.80
2022-08-11T07:20:56.442Z,2.80
2022-08-11T07:22:02.665Z,2.80
2022-08-11T07:22:54.844Z,2.60
2022-08-11T07:23:53.856Z,2.60
2022-08-11T07:24:59.307Z,3.00
2022-08-11T07:25:55.135Z,2.60
2022-08-11T07:26:53.828Z,2.90
2022-08-11T07:27:53.807Z,3.00
2022-08-11T07:28:53.782Z,2.90
2022-08-11T07:29:53.768Z,2.90
2022-08-11T07:30:54.060Z,2.70
2022-08-11T07:31:54.065Z,2.90
2022-08-11T07:32:53.751Z,2.90
2022-08-11T07:34:06.953Z,2.50
2022-08-11T07:34:54.708Z,2.90
2022-08-11T07:35:53.698Z,2.70
2022-08-11T07:36:53.710Z,2.60
2022-08-11T07:38:02.486Z,2.60
2022-08-11T07:40:04.814Z,2.60
2022-08-11T07:41:04.793Z,2.70
2022-08-11T07:42:04.785Z,2.40
2022-08-11T07:43:04.773Z,2.60
2022-08-11T07:44:04.763Z,2.50
2022-08-11T07:45:04.933Z,2.70
2022-08-11T07:46:04.746Z,2.50
2022-08-11T07:47:04.730Z,2.60
2022-08-11T07:48:04.737Z,2.50
2022-08-11T07:49:04.685Z,2.80
2022-08-11T07:50:04.695Z,2.60
2022-08-11T07:51:04.957Z,2.60
2022-08-11T07:52:04.677Z,2.90
2022-08-11T07:53:04.654Z,2.50
2022-08-11T07:54:16.429Z,2.70
2022-08-11T07:55:05.625Z,2.60
2022-08-11T07:56:04.930Z,2.80
2022-08-11T07:57:08.992Z,2.60
2022-08-11T07:58:16.395Z,2.70
2022-08-11T07:59:08.353Z,2.80
2022-08-11T08:00:05.192Z,2.70
2022-08-11T08:01:10.342Z,2.60
2022-08-11T08:02:05.723Z,2.60
2022-08-11T08:03:04.553Z,2.40
2022-08-11T08:04:04.518Z,2.60
2022-08-11T08:05:04.521Z,2.60
2022-08-11T08:06:04.525Z,2.90
2022-08-11T08:07:05.489Z,2.50
2022-08-11T08:08:04.762Z,2.70
2022-08-11T08:09:04.476Z,2.40
2022-08-11T08:10:04.463Z,2.70
2022-08-11T08:11:04.446Z,2.50
2022-08-11T08:12:04.423Z,2.50
2022-08-11T08:13:04.697Z,2.60
2022-08-11T08:14:04.416Z,2.60
2022-08-11T08:15:04.397Z,2.80
2022-08-11T08:16:04.388Z,2.50
2022-08-11T08:17:04.376Z,2.50
2022-08-11T08:18:09.529Z,3.30
2022-08-11T08:19:05.582Z,2.50
2022-08-11T08:20:04.698Z,2.60
2022-08-11T08:21:04.330Z,2.50
2022-08-11T08:22:37.456Z,2.70
2022-08-11T08:23:05.330Z,2.70
2022-08-11T08:24:04.286Z,2.50
2022-08-11T08:25:04.267Z,2.70
2022-08-11T08:26:04.629Z,2.40
2022-08-11T08:27:04.260Z,2.50
2022-08-11T08:28:04.245Z,2.70
2022-08-11T08:29:04.233Z,2.60
2022-08-11T08:30:04.235Z,2.60
2022-08-11T08:31:04.213Z,2.50
2022-08-11T08:32:04.443Z,2.30
2022-08-11T08:33:04.172Z,2.80
2022-08-11T08:34:04.162Z,2.40
2022-08-11T08:35:04.166Z,2.60
2022-08-11T08:36:04.154Z,2.10
2022-08-11T08:37:16.034Z,2.60
2022-08-11T08:38:05.116Z,2.80
2022-08-11T08:39:04.117Z,2.40
2022-08-11T08:40:04.107Z,2.40
2022-08-11T08:41:04.082Z,2.50
2022-08-11T08:42:04.397Z,2.60
2022-08-11T08:43:04.056Z,2.50
2022-08-11T08:44:34.771Z,2.50
2022-08-11T08:45:05.368Z,2.40
2022-08-11T08:46:04.026Z,2.30
2022-08-11T08:47:04.008Z,2.50
2022-08-11T08:48:04.019Z,2.50
2022-08-11T08:49:04.011Z,2.50
2022-08-11T08:50:03.999Z,2.50
2022-08-11T08:51:04.301Z,2.70
2022-08-11T08:52:21.693Z,2.60
2022-08-11T08:53:04.971Z,2.40
2022-08-11T08:54:03.940Z,2.40
2022-08-11T08:55:03.934Z,2.60
2022-08-11T08:56:03.911Z,2.90
2022-08-11T08:57:04.216Z,2.70
2022-08-11T08:58:03.891Z,2.60
2022-08-11T08:59:03.886Z,2.30
2022-08-11T09:00:03.892Z,2.60
2022-08-11T09:01:03.882Z,2.60
2022-08-11T09:02:03.844Z,2.50
2022-08-11T09:03:22.749Z,2.50
2022-08-11T09:04:11.159Z,2.50
2022-08-11T09:05:04.968Z,2.40
2022-08-11T09:06:03.805Z,2.10
2022-08-11T09:07:03.787Z,2.30
2022-08-11T09:08:03.791Z,2.20
2022-08-11T09:09:04.066Z,2.50
2022-08-11T09:10:03.768Z,2.50
2022-08-11T09:11:03.737Z,2.50
2022-08-11T09:12:03.752Z,2.40
2022-08-11T09:13:03.731Z,2.30
2022-08-11T09:14:05.883Z,3.50
2022-08-11T09:15:03.899Z,2.80
2022-08-11T09:16:04.035Z,2.70
2022-08-11T09:17:03.692Z,2.20
2022-08-11T09:18:03.743Z,2.30
2022-08-11T09:19:03.652Z,2.50
2022-08-11T09:20:03.667Z,2.30
2022-08-11T09:21:03.635Z,2.20
2022-08-11T09:22:03.842Z,2.80
2022-08-11T09:24:02.138Z,2.30
2022-08-11T09:24:12.835Z,2.60
2022-08-11T09:25:04.586Z,2.40
2022-08-11T09:26:03.587Z,2.10
2022-08-11T09:27:03.772Z,2.30
2022-08-11T09:28:03.747Z,2.00
2022-08-11T09:29:03.543Z,2.20
2022-08-11T09:30:03.522Z,2.00
2022-08-11T09:31:03.527Z,2.20
2022-08-11T09:32:03.712Z,2.40
2022-08-11T09:33:03.490Z,2.20
2022-08-11T09:34:03.517Z,2.20
2022-08-11T09:35:03.460Z,2.50
2022-08-11T09:36:03.457Z,2.40
2022-08-11T09:37:03.462Z,2.40
2022-08-11T09:38:03.827Z,2.50
2022-08-11T09:39:03.445Z,2.40
2022-08-11T09:40:03.409Z,2.30
2022-08-11T09:41:03.389Z,2.20
2022-08-11T09:42:04.332Z,2.30
2022-08-11T09:43:03.414Z,2.20
2022-08-11T09:44:04.333Z,2.20
2022-08-11T09:45:03.351Z,2.30
2022-08-11T09:46:03.377Z,2.20
2022-08-11T09:47:03.335Z,2.20
2022-08-11T09:48:03.327Z,2.30
2022-08-11T09:49:03.308Z,2.20
2022-08-11T09:50:03.586Z,2.20
2022-08-11T09:51:03.287Z,2.20
2022-08-11T09:52:05.503Z,2.20
2022-08-11T09:53:35.835Z,2.20
2022-08-11T09:54:04.266Z,2.00
2022-08-11T09:55:03.448Z,2.10
2022-08-11T09:56:03.220Z,2.20
2022-08-11T09:57:05.316Z,2.30
2022-08-11T09:58:03.517Z,2.40
2022-08-11T09:59:03.179Z,2.40
2022-08-11T10:00:12.412Z,2.30
2022-08-11T10:01:04.250Z,2.00
2022-08-11T10:02:03.567Z,2.30
2022-08-11T10:03:03.142Z,2.30
2022-08-11T10:04:03.181Z,2.10
2022-08-11T10:05:03.109Z,2.30
2022-08-11T10:06:07.720Z,2.30
2022-08-11T10:07:05.086Z,2.20
2022-08-11T10:08:03.312Z,2.50
2022-08-11T10:09:03.085Z,2.40
2022-08-11T10:10:03.069Z,2.30
2022-08-11T10:11:03.074Z,2.30
2022-08-11T10:12:03.046Z,2.20
2022-08-11T10:13:03.046Z,2.30
2022-08-11T10:14:33.003Z,2.40
2022-08-11T10:15:03.995Z,2.50
2022-08-11T10:16:15.174Z,2.20
2022-08-11T10:17:03.995Z,2.20
2022-08-11T10:18:02.976Z,2.30
2022-08-11T10:19:02.978Z,2.30
2022-08-11T10:20:04.830Z,2.20
2022-08-11T10:21:02.930Z,2.60
2022-08-11T10:22:02.929Z,2.30
2022-08-11T10:23:02.905Z,2.70
2022-08-11T10:24:05.929Z,2.30
2022-08-11T10:25:02.888Z,2.40
2022-08-11T10:26:03.093Z,2.20
2022-08-11T10:27:02.869Z,2.40
2022-08-11T10:28:29.043Z,2.30
2022-08-11T10:29:13.043Z,2.40
2022-08-11T10:30:03.830Z,2.90
2022-08-11T10:31:02.821Z,2.20
2022-08-11T10:32:04.467Z,2.30
2022-08-11T10:33:02.793Z,2.50
2022-08-11T10:34:02.996Z,2.20
2022-08-11T10:35:02.800Z,2.30
2022-08-11T10:36:02.755Z,2.40
2022-08-11T10:37:02.788Z,2.30
2022-08-11T10:38:06.145Z,2.30
2022-08-11T10:39:03.773Z,2.30
2022-08-11T10:40:02.717Z,2.50
2022-08-11T10:41:02.707Z,2.60
2022-08-11T10:42:08.582Z,2.30
2022-08-11T10:43:03.690Z,2.30
2022-08-11T10:44:03.959Z,2.30
2022-08-11T10:45:02.942Z,2.60
2022-08-11T10:46:02.658Z,2.30
2022-08-11T10:47:02.638Z,2.50
2022-08-11T10:48:02.652Z,2.50
2022-08-11T10:49:02.665Z,2.50
2022-08-11T10:50:02.599Z,2.40
2022-08-11T10:51:02.792Z,2.30
2022-08-11T10:52:23.594Z,2.40
2022-08-11T10:53:02.597Z,2.00
2022-08-11T10:54:02.561Z,2.50
2022-08-11T10:55:02.560Z,2.40
2022-08-11T10:57:02.536Z,2.40
2022-08-11T10:58:04.794Z,2.20
2022-08-11T10:59:04.083Z,2.20
2022-08-11T11:00:02.494Z,2.40
2022-08-11T11:01:02.517Z,2.20
2022-08-11T11:02:02.675Z,2.20
2022-08-11T11:03:22.037Z,2.50
2022-08-11T11:04:03.446Z,2.60
2022-08-11T11:05:02.627Z,2.60
2022-08-11T11:06:27.344Z,2.50
2022-08-11T11:07:03.431Z,2.30
2022-08-11T11:08:02.415Z,2.40
2022-08-11T11:09:04.512Z,2.20
2022-08-11T11:10:02.416Z,2.40
2022-08-11T11:11:02.696Z,2.40
2022-08-11T11:12:02.394Z,2.70
2022-08-11T11:13:02.333Z,2.60
2022-08-11T11:14:03.671Z,2.30
2022-08-11T11:15:02.324Z,2.40
2022-08-11T11:16:02.311Z,2.30
2022-08-11T11:17:02.536Z,2.30
2022-08-11T11:18:02.296Z,2.60
2022-08-11T11:19:02.282Z,2.20
2022-08-11T11:20:02.271Z,2.40
2022-08-11T11:21:02.268Z,2.50
2022-08-11T11:22:02.253Z,2.30
2022-08-11T11:23:02.569Z,2.20
2022-08-11T11:24:02.216Z,2.20
2022-08-11T11:25:02.209Z,2.20
2022-08-11T11:26:02.195Z,2.30
2022-08-11T11:27:02.177Z,2.10
2022-08-11T11:28:04.839Z,2.10
2022-08-11T11:29:02.490Z,2.10
2022-08-11T11:30:02.179Z,2.50
2022-08-11T11:31:02.139Z,2.40
2022-08-11T11:32:02.127Z,2.30
2022-08-11T11:33:02.449Z,2.30
2022-08-11T11:34:06.477Z,2.10
2022-08-11T11:35:03.090Z,2.40
2022-08-11T11:36:02.073Z,2.10
2022-08-11T11:37:02.060Z,2.30
2022-08-11T11:38:04.748Z,2.20
2022-08-11T11:39:02.323Z,2.10
2022-08-11T11:40:02.045Z,2.60
2022-08-11T11:41:02.024Z,2.20
2022-08-11T11:42:02.013Z,2.50
2022-08-11T11:43:01.996Z,2.30
2022-08-11T11:44:01.989Z,2.20
2022-08-11T11:45:02.298Z,2.50
2022-08-11T11:46:01.958Z,2.40
2022-08-11T11:47:01.950Z,2.50
2022-08-11T11:48:01.978Z,2.50
2022-08-11T11:49:01.969Z,2.10
2022-08-11T11:50:02.915Z,2.30
2022-08-11T11:51:01.922Z,2.50
2022-08-11T11:52:01.914Z,2.40
2022-08-11T11:53:02.102Z,2.20
2022-08-11T11:54:01.886Z,2.40
2022-08-11T11:55:01.873Z,2.50
2022-08-11T11:56:01.849Z,2.40
2022-08-11T11:57:01.862Z,2.50
2022-08-11T11:58:02.677Z,2.30
2022-08-11T11:59:01.844Z,2.30
2022-08-11T12:00:02.086Z,2.40
2022-08-11T12:01:01.791Z,2.40
2022-08-11T12:02:01.795Z,2.30
2022-08-11T12:03:02.822Z,2.50
2022-08-11T12:04:01.751Z,2.20
2022-08-11T12:05:01.757Z,2.20
2022-08-11T12:06:01.767Z,2.40
2022-08-11T12:07:01.747Z,2.40
2022-08-11T12:08:10.512Z,2.30
2022-08-11T12:09:02.696Z,2.40
2022-08-11T12:10:01.687Z,2.40
2022-08-11T12:11:01.667Z,2.40
2022-08-11T12:12:01.701Z,2.30
2022-08-11T12:13:01.671Z,2.40
2022-08-11T12:14:01.640Z,2.30
2022-08-11T12:15:01.645Z,2.50
2022-08-11T12:16:31.440Z,2.40
2022-08-11T12:17:02.625Z,2.40
2022-08-11T12:18:01.601Z,2.30
2022-08-11T12:19:01.613Z,2.30
2022-08-11T12:20:01.786Z,2.20
2022-08-11T12:21:01.573Z,2.20
2022-08-11T12:22:01.859Z,2.30
2022-08-11T12:23:01.535Z,2.30
2022-08-11T12:24:04.408Z,2.40
2022-08-11T12:25:01.798Z,2.40
2022-08-11T12:26:23.717Z,2.20
2022-08-11T12:27:15.185Z,2.10
2022-08-11T12:28:02.490Z,2.40
2022-08-11T12:29:01.469Z,2.20
2022-08-11T12:30:01.793Z,2.30
2022-08-11T12:31:01.458Z,2.30
2022-08-11T12:32:01.435Z,2.40
2022-08-11T12:33:01.452Z,2.40
2022-08-11T12:34:01.415Z,2.20
2022-08-11T12:35:01.414Z,2.30
2022-08-11T12:36:01.577Z,2.40
2022-08-11T12:37:01.403Z,2.20
2022-08-11T12:38:06.016Z,2.50
2022-08-11T12:39:02.360Z,2.50
2022-08-11T12:40:16.047Z,2.50
2022-08-11T12:41:17.963Z,2.30
2022-08-11T12:42:02.416Z,2.40
2022-08-11T12:43:01.316Z,2.40
2022-08-11T12:44:01.628Z,2.50
2022-08-11T12:45:01.305Z,2.30
2022-08-11T12:46:01.287Z,2.30
2022-08-11T12:47:01.265Z,2.30
2022-08-11T12:48:42.534Z,2.30
2022-08-11T12:49:03.129Z,2.50
2022-08-11T12:50:01.250Z,2.40
2022-08-11T12:51:01.236Z,2.40
2022-08-11T12:52:13.815Z,2.30
2022-08-11T12:53:02.211Z,2.70
2022-08-11T12:54:01.188Z,2.30
2022-08-11T12:55:01.171Z,2.30
2022-08-11T12:56:03.937Z,2.50
2022-08-11T12:57:02.468Z,2.60
2022-08-11T12:58:01.148Z,2.40
2022-08-11T12:59:01.131Z,2.30
2022-08-11T13:00:01.143Z,2.50
2022-08-11T13:01:01.186Z,2.40
2022-08-11T13:02:01.111Z,2.30
2022-08-11T13:03:01.294Z,2.20
2022-08-11T13:04:01.086Z,2.20
2022-08-11T13:05:01.074Z,2.60
2022-08-11T13:06:01.266Z,2.40
2022-08-11T13:07:01.057Z,2.40
2022-08-11T13:08:01.035Z,2.30
2022-08-11T13:09:01.662Z,2.30
2022-08-11T13:10:01.005Z,2.50
2022-08-11T13:11:01.250Z,2.30
2022-08-11T13:12:00.997Z,2.30
2022-08-11T13:13:00.979Z,2.30
2022-08-11T13:14:00.960Z,2.40
2022-08-11T13:15:00.960Z,2.20
2022-08-11T13:16:00.931Z,2.30
2022-08-11T13:17:01.148Z,2.50
2022-08-11T13:18:00.931Z,2.60
2022-08-11T13:19:01.096Z,2.30
2022-08-11T13:20:00.891Z,2.50
2022-08-11T13:21:00.873Z,2.30
2022-08-11T13:22:01.285Z,2.50
2022-08-11T13:23:00.872Z,2.40